sensor_id;sensor_type;location;lat;lon;timestamp;P1;durP1;ratioP1;P2;durP2;ratioP2
23539;SDS011;11947;50.810;4.394;2023-06-26T00:01:30;7.43;;;5.57;;
23539;SDS011;11947;50.810;4.394;2023-06-26T00:04:00;8.93;;;5.70;;
23539;SDS011;11947;50.810;4.394;2023-06-26T00:06:26;11.30;;;6.03;;
23539;SDS011;11947;50.810;4.394;2023-06-26T00:08:53;7.30;;;5.53;;
23539;SDS011;11947;50.810;4.394;2023-06-26T00:11:20;7.03;;;5.03;;
23539;SDS011;11947;50.810;4.394;2023-06-26T00:13:46;9.50;;;4.78;;
23539;SDS011;11947;50.810;4.394;2023-06-26T00:16:11;10.18;;;4.75;;
23539;SDS011;11947;50.810;4.394;2023-06-26T00:18:37;9.02;;;4.70;;
23539;SDS011;11947;50.810;4.394;2023-06-26T00:21:03;10.23;;;5.22;;
23539;SDS011;11947;50.810;4.394;2023-06-26T00:23:29;7.47;;;4.68;;
23539;SDS011;11947;50.810;4.394;2023-06-26T00:25:56;9.00;;;4.63;;
23539;SDS011;11947;50.810;4.394;2023-06-26T00:28:21;10.40;;;4.55;;
23539;SDS011;11947;50.810;4.394;2023-06-26T00:30:47;9.13;;;5.35;;
23539;SDS011;11947;50.810;4.394;2023-06-26T00:33:13;10.20;;;4.45;;
23539;SDS011;11947;50.810;4.394;2023-06-26T00:35:38;8.05;;;4.22;;
23539;SDS011;11947;50.810;4.394;2023-06-26T00:38:04;7.75;;;4.20;;
23539;SDS011;11947;50.810;4.394;2023-06-26T00:40:29;8.25;;;4.40;;
23539;SDS011;11947;50.810;4.394;2023-06-26T00:42:55;7.40;;;3.92;;
23539;SDS011;11947;50.810;4.394;2023-06-26T00:45:21;10.98;;;4.63;;
23539;SDS011;11947;50.810;4.394;2023-06-26T00:47:48;8.70;;;4.80;;
23539;SDS011;11947;50.810;4.394;2023-06-26T00:50:14;9.25;;;4.88;;
23539;SDS011;11947;50.810;4.394;2023-06-26T00:52:41;7.30;;;4.55;;
23539;SDS011;11947;50.810;4.394;2023-06-26T00:55:07;8.40;;;4.28;;
23539;SDS011;11947;50.810;4.394;2023-06-26T00:57:33;7.25;;;4.30;;
23539;SDS011;11947;50.810;4.394;2023-06-26T01:00:00;7.13;;;4.55;;
23539;SDS011;11947;50.810;4.394;2023-06-26T01:02:28;7.85;;;3.88;;
23539;SDS011;11947;50.810;4.394;2023-06-26T01:04:59;8.93;;;4.60;;
23539;SDS011;11947;50.810;4.394;2023-06-26T01:07:28;6.85;;;4.20;;
23539;SDS011;11947;50.810;4.394;2023-06-26T01:09:57;10.27;;;4.53;;
23539;SDS011;11947;50.810;4.394;2023-06-26T01:12:23;8.40;;;3.90;;
23539;SDS011;11947;50.810;4.394;2023-06-26T01:14:48;8.35;;;4.22;;
23539;SDS011;11947;50.810;4.394;2023-06-26T01:17:14;9.52;;;4.10;;
23539;SDS011;11947;50.810;4.394;2023-06-26T01:19:41;6.90;;;3.83;;
23539;SDS011;11947;50.810;4.394;2023-06-26T01:24:42;6.40;;;3.97;;
23539;SDS011;11947;50.810;4.394;2023-06-26T01:27:18;7.90;;;4.43;;
23539;SDS011;11947;50.810;4.394;2023-06-26T01:29:46;8.45;;;4.40;;
23539;SDS011;11947;50.810;4.394;2023-06-26T01:32:14;6.22;;;3.85;;
23539;SDS011;11947;50.810;4.394;2023-06-26T01:34:40;9.93;;;4.20;;
23539;SDS011;11947;50.810;4.394;2023-06-26T01:37:07;7.28;;;4.32;;
23539;SDS011;11947;50.810;4.394;2023-06-26T01:39:32;10.95;;;5.07;;
23539;SDS011;11947;50.810;4.394;2023-06-26T01:41:58;5.78;;;3.78;;
23539;SDS011;11947;50.810;4.394;2023-06-26T01:44:26;9.52;;;4.45;;
23539;SDS011;11947;50.810;4.394;2023-06-26T01:46:56;9.68;;;4.03;;
23539;SDS011;11947;50.810;4.394;2023-06-26T01:57:50;12.48;;;4.35;;
23539;SDS011;11947;50.810;4.394;2023-06-26T02:00:20;8.70;;;4.13;;
23539;SDS011;11947;50.810;4.394;2023-06-26T02:02:48;7.43;;;4.00;;
23539;SDS011;11947;50.810;4.394;2023-06-26T02:05:13;10.00;;;4.05;;
23539;SDS011;11947;50.810;4.394;2023-06-26T02:07:39;11.43;;;4.25;;
23539;SDS011;11947;50.810;4.394;2023-06-26T02:10:06;10.73;;;4.43;;
23539;SDS011;11947;50.810;4.394;2023-06-26T02:12:31;12.75;;;4.38;;
23539;SDS011;11947;50.810;4.394;2023-06-26T02:14:57;8.57;;;4.65;;
23539;SDS011;11947;50.810;4.394;2023-06-26T02:17:23;8.57;;;3.95;;
23539;SDS011;11947;50.810;4.394;2023-06-26T02:19:48;9.80;;;4.57;;
23539;SDS011;11947;50.810;4.394;2023-06-26T02:22:14;8.82;;;4.40;;
23539;SDS011;11947;50.810;4.394;2023-06-26T02:24:41;9.50;;;4.22;;
23539;SDS011;11947;50.810;4.394;2023-06-26T02:27:07;7.15;;;4.45;;
23539;SDS011;11947;50.810;4.394;2023-06-26T02:29:33;8.55;;;4.35;;
23539;SDS011;11947;50.810;4.394;2023-06-26T02:31:58;8.30;;;4.32;;
23539;SDS011;11947;50.810;4.394;2023-06-26T02:34:24;9.65;;;4.18;;
23539;SDS011;11947;50.810;4.394;2023-06-26T02:36:50;8.25;;;4.40;;
23539;SDS011;11947;50.810;4.394;2023-06-26T02:39:15;10.13;;;4.40;;
23539;SDS011;11947;50.810;4.394;2023-06-26T02:41:41;7.95;;;4.45;;
23539;SDS011;11947;50.810;4.394;2023-06-26T02:44:08;15.25;;;5.07;;
23539;SDS011;11947;50.810;4.394;2023-06-26T02:46:36;9.45;;;4.60;;
23539;SDS011;11947;50.810;4.394;2023-06-26T02:49:01;12.45;;;4.20;;
23539;SDS011;11947;50.810;4.394;2023-06-26T02:51:27;10.23;;;4.47;;
23539;SDS011;11947;50.810;4.394;2023-06-26T02:53:53;9.23;;;4.68;;
23539;SDS011;11947;50.810;4.394;2023-06-26T02:56:18;11.20;;;4.55;;
23539;SDS011;11947;50.810;4.394;2023-06-26T02:58:44;10.18;;;4.72;;
23539;SDS011;11947;50.810;4.394;2023-06-26T03:01:10;11.82;;;4.60;;
23539;SDS011;11947;50.810;4.394;2023-06-26T03:03:36;12.23;;;4.65;;
23539;SDS011;11947;50.810;4.394;2023-06-26T03:06:08;11.38;;;4.47;;
23539;SDS011;11947;50.810;4.394;2023-06-26T03:08:37;12.43;;;4.70;;
23539;SDS011;11947;50.810;4.394;2023-06-26T03:11:04;12.70;;;4.63;;
23539;SDS011;11947;50.810;4.394;2023-06-26T03:13:30;9.35;;;4.70;;
23539;SDS011;11947;50.810;4.394;2023-06-26T03:15:56;14.20;;;4.57;;
23539;SDS011;11947;50.810;4.394;2023-06-26T03:18:22;10.82;;;4.75;;
23539;SDS011;11947;50.810;4.394;2023-06-26T03:20:48;14.38;;;4.82;;
23539;SDS011;11947;50.810;4.394;2023-06-26T03:23:13;11.57;;;4.95;;
23539;SDS011;11947;50.810;4.394;2023-06-26T03:25:39;11.35;;;4.90;;
23539;SDS011;11947;50.810;4.394;2023-06-26T03:28:04;10.85;;;4.43;;
23539;SDS011;11947;50.810;4.394;2023-06-26T03:30:30;12.88;;;5.35;;
23539;SDS011;11947;50.810;4.394;2023-06-26T03:32:56;16.95;;;4.97;;
23539;SDS011;11947;50.810;4.394;2023-06-26T03:35:21;10.43;;;4.47;;
23539;SDS011;11947;50.810;4.394;2023-06-26T03:37:48;12.18;;;4.50;;
23539;SDS011;11947;50.810;4.394;2023-06-26T03:40:14;11.68;;;5.05;;
23539;SDS011;11947;50.810;4.394;2023-06-26T03:42:40;13.70;;;4.75;;
23539;SDS011;11947;50.810;4.394;2023-06-26T03:45:06;13.75;;;4.90;;
23539;SDS011;11947;50.810;4.394;2023-06-26T03:47:34;12.82;;;5.10;;
23539;SDS011;11947;50.810;4.394;2023-06-26T03:50:00;12.80;;;5.20;;
23539;SDS011;11947;50.810;4.394;2023-06-26T03:52:25;15.23;;;5.00;;
23539;SDS011;11947;50.810;4.394;2023-06-26T03:54:51;18.42;;;4.95;;
23539;SDS011;11947;50.810;4.394;2023-06-26T03:57:19;14.27;;;5.65;;
23539;SDS011;11947;50.810;4.394;2023-06-26T03:59:45;12.82;;;4.68;;
23539;SDS011;11947;50.810;4.394;2023-06-26T04:02:10;15.27;;;5.07;;
23539;SDS011;11947;50.810;4.394;2023-06-26T04:04:37;13.95;;;5.03;;
23539;SDS011;11947;50.810;4.394;2023-06-26T04:07:03;14.27;;;5.38;;
23539;SDS011;11947;50.810;4.394;2023-06-26T04:09:28;17.83;;;5.50;;
23539;SDS011;11947;50.810;4.394;2023-06-26T04:11:54;19.75;;;5.50;;
23539;SDS011;11947;50.810;4.394;2023-06-26T04:14:20;18.58;;;4.68;;
23539;SDS011;11947;50.810;4.394;2023-06-26T04:16:46;17.30;;;5.20;;
23539;SDS011;11947;50.810;4.394;2023-06-26T04:19:12;13.15;;;4.88;;
23539;SDS011;11947;50.810;4.394;2023-06-26T04:21:38;18.70;;;5.07;;
23539;SDS011;11947;50.810;4.394;2023-06-26T04:24:04;13.50;;;4.90;;
23539;SDS011;11947;50.810;4.394;2023-06-26T04:26:30;17.17;;;5.20;;
23539;SDS011;11947;50.810;4.394;2023-06-26T04:28:56;16.85;;;4.78;;
23539;SDS011;11947;50.810;4.394;2023-06-26T04:31:21;17.73;;;5.40;;
23539;SDS011;11947;50.810;4.394;2023-06-26T04:34:02;16.40;;;6.15;;
23539;SDS011;11947;50.810;4.394;2023-06-26T04:36:37;20.58;;;6.07;;
23539;SDS011;11947;50.810;4.394;2023-06-26T04:39:07;18.38;;;4.60;;
23539;SDS011;11947;50.810;4.394;2023-06-26T04:41:32;17.98;;;5.47;;
23539;SDS011;11947;50.810;4.394;2023-06-26T04:43:58;16.65;;;5.05;;
23539;SDS011;11947;50.810;4.394;2023-06-26T04:46:23;17.20;;;4.82;;
23539;SDS011;11947;50.810;4.394;2023-06-26T04:48:49;22.58;;;5.65;;
23539;SDS011;11947;50.810;4.394;2023-06-26T04:51:15;17.02;;;4.80;;
23539;SDS011;11947;50.810;4.394;2023-06-26T04:53:47;19.15;;;4.45;;
23539;SDS011;11947;50.810;4.394;2023-06-26T04:56:13;13.75;;;4.43;;
23539;SDS011;11947;50.810;4.394;2023-06-26T04:58:39;13.43;;;4.40;;
23539;SDS011;11947;50.810;4.394;2023-06-26T05:01:05;15.45;;;4.60;;
23539;SDS011;11947;50.810;4.394;2023-06-26T05:03:32;16.45;;;4.53;;
23539;SDS011;11947;50.810;4.394;2023-06-26T05:06:01;16.67;;;4.60;;
23539;SDS011;11947;50.810;4.394;2023-06-26T05:08:27;17.55;;;4.47;;
23539;SDS011;11947;50.810;4.394;2023-06-26T05:10:53;18.50;;;4.57;;
23539;SDS011;11947;50.810;4.394;2023-06-26T05:13:22;18.25;;;4.45;;
23539;SDS011;11947;50.810;4.394;2023-06-26T05:15:49;19.70;;;5.22;;
23539;SDS011;11947;50.810;4.394;2023-06-26T05:18:16;12.40;;;4.25;;
23539;SDS011;11947;50.810;4.394;2023-06-26T05:20:41;18.58;;;4.45;;
23539;SDS011;11947;50.810;4.394;2023-06-26T05:23:08;14.68;;;4.15;;
23539;SDS011;11947;50.810;4.394;2023-06-26T05:25:37;15.02;;;4.50;;
23539;SDS011;11947;50.810;4.394;2023-06-26T05:28:03;15.05;;;3.72;;
23539;SDS011;11947;50.810;4.394;2023-06-26T05:30:30;15.50;;;4.60;;
23539;SDS011;11947;50.810;4.394;2023-06-26T05:33:00;19.40;;;4.47;;
23539;SDS011;11947;50.810;4.394;2023-06-26T05:35:30;18.90;;;4.80;;
23539;SDS011;11947;50.810;4.394;2023-06-26T05:37:56;15.55;;;4.43;;
23539;SDS011;11947;50.810;4.394;2023-06-26T05:40:22;17.00;;;3.63;;
23539;SDS011;11947;50.810;4.394;2023-06-26T05:42:49;18.35;;;4.30;;
23539;SDS011;11947;50.810;4.394;2023-06-26T05:45:16;15.00;;;4.22;;
23539;SDS011;11947;50.810;4.394;2023-06-26T05:47:42;12.32;;;3.75;;
23539;SDS011;11947;50.810;4.394;2023-06-26T05:50:11;14.50;;;3.95;;
23539;SDS011;11947;50.810;4.394;2023-06-26T05:52:37;19.50;;;3.75;;
23539;SDS011;11947;50.810;4.394;2023-06-26T05:55:04;14.57;;;3.33;;
23539;SDS011;11947;50.810;4.394;2023-06-26T05:57:32;11.77;;;3.30;;
23539;SDS011;11947;50.810;4.394;2023-06-26T06:00:00;13.27;;;3.80;;
23539;SDS011;11947;50.810;4.394;2023-06-26T06:02:27;15.23;;;3.42;;
23539;SDS011;11947;50.810;4.394;2023-06-26T06:04:54;16.83;;;3.10;;
23539;SDS011;11947;50.810;4.394;2023-06-26T06:07:20;14.30;;;3.25;;
23539;SDS011;11947;50.810;4.394;2023-06-26T06:09:46;15.18;;;2.90;;
23539;SDS011;11947;50.810;4.394;2023-06-26T06:12:12;13.63;;;3.33;;
23539;SDS011;11947;50.810;4.394;2023-06-26T06:14:41;13.98;;;3.35;;
23539;SDS011;11947;50.810;4.394;2023-06-26T06:17:07;11.55;;;3.40;;
23539;SDS011;11947;50.810;4.394;2023-06-26T06:19:32;15.68;;;2.72;;
23539;SDS011;11947;50.810;4.394;2023-06-26T06:21:58;12.23;;;2.80;;
23539;SDS011;11947;50.810;4.394;2023-06-26T06:24:24;13.07;;;3.20;;
23539;SDS011;11947;50.810;4.394;2023-06-26T06:26:51;9.82;;;2.97;;
23539;SDS011;11947;50.810;4.394;2023-06-26T06:31:54;8.15;;;2.10;;
23539;SDS011;11947;50.810;4.394;2023-06-26T06:34:20;9.60;;;2.45;;
23539;SDS011;11947;50.810;4.394;2023-06-26T06:36:51;8.38;;;2.58;;
23539;SDS011;11947;50.810;4.394;2023-06-26T06:39:17;9.60;;;2.33;;
23539;SDS011;11947;50.810;4.394;2023-06-26T06:41:46;6.45;;;2.38;;
23539;SDS011;11947;50.810;4.394;2023-06-26T06:44:12;11.95;;;2.30;;
23539;SDS011;11947;50.810;4.394;2023-06-26T06:46:42;13.77;;;2.75;;
23539;SDS011;11947;50.810;4.394;2023-06-26T06:49:08;14.43;;;2.58;;
23539;SDS011;11947;50.810;4.394;2023-06-26T06:51:34;11.32;;;2.50;;
23539;SDS011;11947;50.810;4.394;2023-06-26T06:54:04;7.28;;;2.28;;
23539;SDS011;11947;50.810;4.394;2023-06-26T06:56:29;8.93;;;2.58;;
23539;SDS011;11947;50.810;4.394;2023-06-26T06:58:56;9.98;;;2.22;;
23539;SDS011;11947;50.810;4.394;2023-06-26T07:01:21;6.95;;;2.13;;
23539;SDS011;11947;50.810;4.394;2023-06-26T07:03:56;12.20;;;2.33;;
23539;SDS011;11947;50.810;4.394;2023-06-26T07:06:22;10.10;;;2.20;;
23539;SDS011;11947;50.810;4.394;2023-06-26T07:08:48;10.30;;;2.28;;
23539;SDS011;11947;50.810;4.394;2023-06-26T07:11:14;7.15;;;1.88;;
23539;SDS011;11947;50.810;4.394;2023-06-26T07:13:40;7.40;;;2.00;;
23539;SDS011;11947;50.810;4.394;2023-06-26T07:16:06;6.45;;;2.22;;
23539;SDS011;11947;50.810;4.394;2023-06-26T07:18:31;11.57;;;1.83;;
23539;SDS011;11947;50.810;4.394;2023-06-26T07:20:57;6.70;;;1.92;;
23539;SDS011;11947;50.810;4.394;2023-06-26T07:23:23;8.25;;;2.40;;
23539;SDS011;11947;50.810;4.394;2023-06-26T07:25:49;7.97;;;2.08;;
23539;SDS011;11947;50.810;4.394;2023-06-26T07:28:15;6.25;;;2.10;;
23539;SDS011;11947;50.810;4.394;2023-06-26T07:30:40;8.30;;;2.38;;
23539;SDS011;11947;50.810;4.394;2023-06-26T07:33:07;8.35;;;2.00;;
23539;SDS011;11947;50.810;4.394;2023-06-26T07:35:35;7.75;;;2.05;;
23539;SDS011;11947;50.810;4.394;2023-06-26T07:38:00;9.70;;;1.80;;
23539;SDS011;11947;50.810;4.394;2023-06-26T07:40:26;20.13;;;1.95;;
23539;SDS011;11947;50.810;4.394;2023-06-26T07:42:52;8.82;;;2.40;;
23539;SDS011;11947;50.810;4.394;2023-06-26T07:45:19;6.28;;;1.90;;
23539;SDS011;11947;50.810;4.394;2023-06-26T07:47:45;7.00;;;1.80;;
23539;SDS011;11947;50.810;4.394;2023-06-26T07:50:11;13.00;;;2.30;;
23539;SDS011;11947;50.810;4.394;2023-06-26T07:52:37;11.70;;;2.72;;
23539;SDS011;11947;50.810;4.394;2023-06-26T07:55:22;7.28;;;1.90;;
23539;SDS011;11947;50.810;4.394;2023-06-26T07:57:48;8.75;;;2.30;;
23539;SDS011;11947;50.810;4.394;2023-06-26T08:00:15;6.13;;;1.90;;
23539;SDS011;11947;50.810;4.394;2023-06-26T08:02:41;9.02;;;1.90;;
23539;SDS011;11947;50.810;4.394;2023-06-26T08:05:07;5.88;;;2.13;;
23539;SDS011;11947;50.810;4.394;2023-06-26T08:07:36;10.05;;;2.60;;
23539;SDS011;11947;50.810;4.394;2023-06-26T08:10:05;7.18;;;2.17;;
23539;SDS011;11947;50.810;4.394;2023-06-26T08:12:31;7.25;;;2.42;;
23539;SDS011;11947;50.810;4.394;2023-06-26T08:14:57;6.65;;;2.05;;
23539;SDS011;11947;50.810;4.394;2023-06-26T08:17:22;6.38;;;1.95;;
23539;SDS011;11947;50.810;4.394;2023-06-26T08:19:48;8.13;;;2.30;;
23539;SDS011;11947;50.810;4.394;2023-06-26T08:22:14;6.55;;;1.75;;
23539;SDS011;11947;50.810;4.394;2023-06-26T08:24:40;5.95;;;1.65;;
23539;SDS011;11947;50.810;4.394;2023-06-26T08:27:06;6.68;;;2.00;;
23539;SDS011;11947;50.810;4.394;2023-06-26T08:29:32;8.68;;;2.00;;
23539;SDS011;11947;50.810;4.394;2023-06-26T08:32:01;5.90;;;2.15;;
23539;SDS011;11947;50.810;4.394;2023-06-26T08:34:27;7.05;;;1.95;;
23539;SDS011;11947;50.810;4.394;2023-06-26T08:36:54;7.70;;;2.25;;
23539;SDS011;11947;50.810;4.394;2023-06-26T08:39:29;4.93;;;1.75;;
23539;SDS011;11947;50.810;4.394;2023-06-26T08:41:55;5.82;;;1.63;;
23539;SDS011;11947;50.810;4.394;2023-06-26T08:44:21;6.63;;;2.05;;
23539;SDS011;11947;50.810;4.394;2023-06-26T08:46:50;5.53;;;2.22;;
23539;SDS011;11947;50.810;4.394;2023-06-26T08:49:25;8.23;;;2.03;;
23539;SDS011;11947;50.810;4.394;2023-06-26T08:52:13;5.50;;;1.90;;
23539;SDS011;11947;50.810;4.394;2023-06-26T08:54:46;5.55;;;1.60;;
23539;SDS011;11947;50.810;4.394;2023-06-26T08:57:21;11.65;;;2.33;;
23539;SDS011;11947;50.810;4.394;2023-06-26T08:59:48;5.90;;;2.33;;
23539;SDS011;11947;50.810;4.394;2023-06-26T09:02:14;8.30;;;2.10;;
23539;SDS011;11947;50.810;4.394;2023-06-26T09:04:40;9.43;;;2.03;;
23539;SDS011;11947;50.810;4.394;2023-06-26T09:07:06;5.13;;;1.90;;
23539;SDS011;11947;50.810;4.394;2023-06-26T09:09:32;4.40;;;1.70;;
23539;SDS011;11947;50.810;4.394;2023-06-26T09:11:58;8.98;;;2.00;;
23539;SDS011;11947;50.810;4.394;2023-06-26T09:14:24;5.95;;;1.65;;
23539;SDS011;11947;50.810;4.394;2023-06-26T09:16:50;4.80;;;1.45;;
23539;SDS011;11947;50.810;4.394;2023-06-26T09:19:15;8.40;;;1.73;;
23539;SDS011;11947;50.810;4.394;2023-06-26T09:21:43;4.75;;;2.03;;
23539;SDS011;11947;50.810;4.394;2023-06-26T09:24:12;4.72;;;1.67;;
23539;SDS011;11947;50.810;4.394;2023-06-26T09:26:38;3.65;;;1.80;;
23539;SDS011;11947;50.810;4.394;2023-06-26T09:29:06;6.10;;;1.85;;
23539;SDS011;11947;50.810;4.394;2023-06-26T09:31:32;6.70;;;1.55;;
23539;SDS011;11947;50.810;4.394;2023-06-26T09:33:59;4.72;;;1.63;;
23539;SDS011;11947;50.810;4.394;2023-06-26T09:36:27;7.22;;;1.95;;
23539;SDS011;11947;50.810;4.394;2023-06-26T09:39:10;7.90;;;1.85;;
23539;SDS011;11947;50.810;4.394;2023-06-26T09:41:36;5.53;;;1.70;;
23539;SDS011;11947;50.810;4.394;2023-06-26T09:44:03;3.60;;;1.80;;
23539;SDS011;11947;50.810;4.394;2023-06-26T09:46:30;4.45;;;1.70;;
23539;SDS011;11947;50.810;4.394;2023-06-26T09:48:58;7.97;;;1.50;;
23539;SDS011;11947;50.810;4.394;2023-06-26T09:53:58;4.50;;;1.90;;
23539;SDS011;11947;50.810;4.394;2023-06-26T09:56:24;4.93;;;2.03;;
23539;SDS011;11947;50.810;4.394;2023-06-26T09:58:52;8.88;;;1.60;;
23539;SDS011;11947;50.810;4.394;2023-06-26T10:01:23;4.60;;;1.40;;
23539;SDS011;11947;50.810;4.394;2023-06-26T10:03:49;4.35;;;2.22;;
23539;SDS011;11947;50.810;4.394;2023-06-26T10:09:12;4.68;;;1.98;;
23539;SDS011;11947;50.810;4.394;2023-06-26T10:14:26;5.28;;;1.90;;
23539;SDS011;11947;50.810;4.394;2023-06-26T10:16:52;6.68;;;1.90;;
23539;SDS011;11947;50.810;4.394;2023-06-26T10:19:23;4.50;;;1.77;;
23539;SDS011;11947;50.810;4.394;2023-06-26T10:21:54;6.60;;;1.80;;
23539;SDS011;11947;50.810;4.394;2023-06-26T10:24:21;4.72;;;1.80;;
23539;SDS011;11947;50.810;4.394;2023-06-26T10:26:52;5.82;;;2.00;;
23539;SDS011;11947;50.810;4.394;2023-06-26T10:29:23;5.07;;;1.98;;
23539;SDS011;11947;50.810;4.394;2023-06-26T10:31:51;4.40;;;2.20;;
23539;SDS011;11947;50.810;4.394;2023-06-26T10:34:20;5.07;;;2.20;;
23539;SDS011;11947;50.810;4.394;2023-06-26T10:36:47;4.57;;;1.80;;
23539;SDS011;11947;50.810;4.394;2023-06-26T10:39:16;4.57;;;1.70;;
23539;SDS011;11947;50.810;4.394;2023-06-26T10:41:42;5.65;;;2.05;;
23539;SDS011;11947;50.810;4.394;2023-06-26T10:44:12;5.32;;;2.20;;
23539;SDS011;11947;50.810;4.394;2023-06-26T10:46:51;4.57;;;2.25;;
23539;SDS011;11947;50.810;4.394;2023-06-26T10:49:24;3.83;;;2.00;;
23539;SDS011;11947;50.810;4.394;2023-06-26T10:51:51;3.67;;;2.30;;
23539;SDS011;11947;50.810;4.394;2023-06-26T10:54:20;4.75;;;2.20;;
23539;SDS011;11947;50.810;4.394;2023-06-26T10:56:46;6.25;;;2.22;;
23539;SDS011;11947;50.810;4.394;2023-06-26T10:59:20;4.55;;;2.33;;
23539;SDS011;11947;50.810;4.394;2023-06-26T11:01:59;5.88;;;2.03;;
23539;SDS011;11947;50.810;4.394;2023-06-26T11:04:36;7.72;;;2.13;;
23539;SDS011;11947;50.810;4.394;2023-06-26T11:07:15;6.72;;;2.38;;
23539;SDS011;11947;50.810;4.394;2023-06-26T11:15:19;3.85;;;2.20;;
23539;SDS011;11947;50.810;4.394;2023-06-26T11:17:45;4.35;;;2.15;;
23539;SDS011;11947;50.810;4.394;2023-06-26T11:20:12;6.38;;;2.42;;
23539;SDS011;11947;50.810;4.394;2023-06-26T11:22:39;4.75;;;2.15;;
23539;SDS011;11947;50.810;4.394;2023-06-26T11:25:06;5.38;;;2.72;;
23539;SDS011;11947;50.810;4.394;2023-06-26T11:30:09;5.35;;;2.22;;
23539;SDS011;11947;50.810;4.394;2023-06-26T11:32:37;7.05;;;2.30;;
23539;SDS011;11947;50.810;4.394;2023-06-26T11:35:03;5.63;;;2.20;;
23539;SDS011;11947;50.810;4.394;2023-06-26T11:37:30;5.30;;;2.30;;
23539;SDS011;11947;50.810;4.394;2023-06-26T11:39:56;5.07;;;2.13;;
23539;SDS011;11947;50.810;4.394;2023-06-26T11:42:22;3.85;;;2.17;;
23539;SDS011;11947;50.810;4.394;2023-06-26T11:44:49;6.35;;;2.03;;
23539;SDS011;11947;50.810;4.394;2023-06-26T11:47:16;3.85;;;1.95;;
23539;SDS011;11947;50.810;4.394;2023-06-26T11:49:44;3.70;;;1.98;;
23539;SDS011;11947;50.810;4.394;2023-06-26T11:52:10;3.22;;;1.92;;
23539;SDS011;11947;50.810;4.394;2023-06-26T11:54:36;9.07;;;2.38;;
23539;SDS011;11947;50.810;4.394;2023-06-26T11:57:02;6.75;;;2.13;;
23539;SDS011;11947;50.810;4.394;2023-06-26T11:59:33;3.70;;;2.15;;
23539;SDS011;11947;50.810;4.394;2023-06-26T12:04:32;5.30;;;2.38;;
23539;SDS011;11947;50.810;4.394;2023-06-26T12:07:00;5.18;;;2.38;;
23539;SDS011;11947;50.810;4.394;2023-06-26T12:09:32;5.03;;;2.53;;
23539;SDS011;11947;50.810;4.394;2023-06-26T12:12:01;3.42;;;2.20;;
23539;SDS011;11947;50.810;4.394;2023-06-26T12:14:26;6.95;;;2.25;;
23539;SDS011;11947;50.810;4.394;2023-06-26T12:16:53;4.65;;;2.03;;
23539;SDS011;11947;50.810;4.394;2023-06-26T12:19:23;4.05;;;2.00;;
23539;SDS011;11947;50.810;4.394;2023-06-26T12:24:18;4.55;;;1.95;;
23539;SDS011;11947;50.810;4.394;2023-06-26T12:26:46;4.63;;;2.00;;
23539;SDS011;11947;50.810;4.394;2023-06-26T12:29:15;5.05;;;2.13;;
23539;SDS011;11947;50.810;4.394;2023-06-26T12:31:43;3.80;;;2.00;;
23539;SDS011;11947;50.810;4.394;2023-06-26T12:34:11;5.28;;;2.17;;
23539;SDS011;11947;50.810;4.394;2023-06-26T12:36:44;6.10;;;2.15;;
23539;SDS011;11947;50.810;4.394;2023-06-26T12:39:11;4.60;;;2.22;;
23539;SDS011;11947;50.810;4.394;2023-06-26T12:41:44;3.88;;;2.40;;
23539;SDS011;11947;50.810;4.394;2023-06-26T12:44:22;5.43;;;1.90;;
23539;SDS011;11947;50.810;4.394;2023-06-26T12:46:58;4.25;;;2.38;;
23539;SDS011;11947;50.810;4.394;2023-06-26T12:49:35;4.13;;;2.13;;
23539;SDS011;11947;50.810;4.394;2023-06-26T12:52:02;6.40;;;2.20;;
23539;SDS011;11947;50.810;4.394;2023-06-26T12:54:39;3.70;;;2.22;;
23539;SDS011;11947;50.810;4.394;2023-06-26T12:57:05;4.80;;;2.05;;
23539;SDS011;11947;50.810;4.394;2023-06-26T12:59:35;4.60;;;2.28;;
23539;SDS011;11947;50.810;4.394;2023-06-26T13:02:02;4.35;;;2.03;;
23539;SDS011;11947;50.810;4.394;2023-06-26T13:04:28;5.63;;;2.20;;
23539;SDS011;11947;50.810;4.394;2023-06-26T13:06:54;5.95;;;2.47;;
23539;SDS011;11947;50.810;4.394;2023-06-26T13:09:23;3.72;;;2.22;;
23539;SDS011;11947;50.810;4.394;2023-06-26T13:11:50;6.05;;;2.22;;
23539;SDS011;11947;50.810;4.394;2023-06-26T13:14:21;8.82;;;2.38;;
23539;SDS011;11947;50.810;4.394;2023-06-26T13:16:47;4.70;;;2.13;;
23539;SDS011;11947;50.810;4.394;2023-06-26T13:19:13;6.82;;;2.53;;
23539;SDS011;11947;50.810;4.394;2023-06-26T13:21:38;3.03;;;2.00;;
23539;SDS011;11947;50.810;4.394;2023-06-26T13:24:04;4.97;;;2.10;;
23539;SDS011;11947;50.810;4.394;2023-06-26T13:26:30;9.75;;;2.20;;
23539;SDS011;11947;50.810;4.394;2023-06-26T13:28:56;4.97;;;1.85;;
23539;SDS011;11947;50.810;4.394;2023-06-26T13:31:22;5.30;;;2.10;;
23539;SDS011;11947;50.810;4.394;2023-06-26T13:33:48;4.45;;;1.65;;
23539;SDS011;11947;50.810;4.394;2023-06-26T13:36:14;5.30;;;2.15;;
23539;SDS011;11947;50.810;4.394;2023-06-26T13:38:40;6.10;;;2.13;;
23539;SDS011;11947;50.810;4.394;2023-06-26T13:41:06;4.25;;;2.05;;
23539;SDS011;11947;50.810;4.394;2023-06-26T13:43:32;9.77;;;2.08;;
23539;SDS011;11947;50.810;4.394;2023-06-26T13:45:58;7.00;;;1.90;;
23539;SDS011;11947;50.810;4.394;2023-06-26T13:48:23;2.80;;;2.00;;
23539;SDS011;11947;50.810;4.394;2023-06-26T13:50:49;6.25;;;2.15;;
23539;SDS011;11947;50.810;4.394;2023-06-26T13:53:15;6.68;;;1.92;;
23539;SDS011;11947;50.810;4.394;2023-06-26T13:55:42;5.32;;;2.08;;
23539;SDS011;11947;50.810;4.394;2023-06-26T13:58:09;5.65;;;2.20;;
23539;SDS011;11947;50.810;4.394;2023-06-26T14:00:36;5.68;;;1.83;;
23539;SDS011;11947;50.810;4.394;2023-06-26T14:03:02;4.88;;;2.35;;
23539;SDS011;11947;50.810;4.394;2023-06-26T14:05:29;4.60;;;2.10;;
23539;SDS011;11947;50.810;4.394;2023-06-26T14:07:55;3.08;;;2.05;;
23539;SDS011;11947;50.810;4.394;2023-06-26T14:10:22;5.47;;;2.17;;
23539;SDS011;11947;50.810;4.394;2023-06-26T14:12:48;6.25;;;2.20;;
23539;SDS011;11947;50.810;4.394;2023-06-26T14:15:14;4.07;;;2.13;;
23539;SDS011;11947;50.810;4.394;2023-06-26T14:17:41;3.47;;;1.75;;
23539;SDS011;11947;50.810;4.394;2023-06-26T14:20:07;6.25;;;2.22;;
23539;SDS011;11947;50.810;4.394;2023-06-26T14:22:45;4.82;;;1.90;;
23539;SDS011;11947;50.810;4.394;2023-06-26T14:25:11;5.30;;;1.90;;
23539;SDS011;11947;50.810;4.394;2023-06-26T14:27:37;5.60;;;1.90;;
23539;SDS011;11947;50.810;4.394;2023-06-26T14:30:03;3.67;;;1.52;;
23539;SDS011;11947;50.810;4.394;2023-06-26T14:32:32;5.82;;;1.67;;
23539;SDS011;11947;50.810;4.394;2023-06-26T14:34:58;4.03;;;1.60;;
23539;SDS011;11947;50.810;4.394;2023-06-26T14:37:28;4.57;;;1.77;;
23539;SDS011;11947;50.810;4.394;2023-06-26T14:39:59;4.10;;;1.60;;
23539;SDS011;11947;50.810;4.394;2023-06-26T14:42:24;3.97;;;1.80;;
23539;SDS011;11947;50.810;4.394;2023-06-26T14:44:51;5.07;;;1.60;;
23539;SDS011;11947;50.810;4.394;2023-06-26T14:47:17;4.38;;;1.63;;
23539;SDS011;11947;50.810;4.394;2023-06-26T14:49:43;4.53;;;1.67;;
23539;SDS011;11947;50.810;4.394;2023-06-26T14:52:08;6.03;;;1.65;;
23539;SDS011;11947;50.810;4.394;2023-06-26T14:54:34;4.10;;;1.80;;
23539;SDS011;11947;50.810;4.394;2023-06-26T14:57:04;6.88;;;1.88;;
23539;SDS011;11947;50.810;4.394;2023-06-26T14:59:33;5.00;;;1.73;;
23539;SDS011;11947;50.810;4.394;2023-06-26T15:01:59;5.63;;;2.00;;
23539;SDS011;11947;50.810;4.394;2023-06-26T15:04:25;5.18;;;1.83;;
23539;SDS011;11947;50.810;4.394;2023-06-26T15:06:52;7.75;;;2.60;;
23539;SDS011;11947;50.810;4.394;2023-06-26T15:09:18;4.03;;;1.85;;
23539;SDS011;11947;50.810;4.394;2023-06-26T15:11:43;4.40;;;1.90;;
23539;SDS011;11947;50.810;4.394;2023-06-26T15:14:09;4.30;;;1.77;;
23539;SDS011;11947;50.810;4.394;2023-06-26T15:16:35;4.75;;;1.98;;
23539;SDS011;11947;50.810;4.394;2023-06-26T15:19:00;5.75;;;2.30;;